Time;durP1;ratioP1;P1;durP2;ratioP2;P2;SDS_P1;SDS_P2;PMS_P1;PMS_P2;Temp;Humidity;BMP_temperature;BMP_pressure;BME280_temperature;BME280_humidity;BME280_pressure;Samples;Min_cycle;Max_cycle;Signal;HPM_P1;HPM_P2
2022/04/27 00:01:10;;;;;;;;;;;8.50;1.00;;;;;;10368203;28;84352;-46
2022/04/27 00:06:10;;;;;;;;;;;8.40;1.00;;;;;;10354689;28;84791;-46
2022/04/27 00:11:11;;;;;;;;;;;8.40;1.00;;;;;;10374988;28;84098;-46
2022/04/27 00:16:11;;;;;;;;;;;8.40;1.00;;;;;;10374371;28;84573;-47
2022/04/27 00:21:12;;;;;;;;;;;8.40;1.00;;;;;;10374566;28;84921;-47
2022/04/27 00:26:13;;;;;;;;;;;8.30;1.00;;;;;;10355676;28;84148;-51
2022/04/27 00:31:14;;;;;;;;;;;8.20;1.00;;;;;;10374430;28;84949;-50
2022/04/27 00:36:14;;;;;;;;;;;8.10;1.00;;;;;;10352608;28;85961;-46
2022/04/27 00:41:15;;;;;;;;;;;8.00;1.00;;;;;;10373362;28;84614;-46
2022/04/27 00:46:16;;;;;;;;;;;8.00;1.00;;;;;;10372786;28;84154;-46
2022/04/27 00:51:17;;;;;;;;;;;8.10;1.00;;;;;;10373624;28;84122;-47
2022/04/27 00:56:18;;;;;;;;;;;8.10;1.00;;;;;;10354726;28;86740;-46
2022/04/27 01:01:19;;;;;;;;;;;8.00;1.00;;;;;;10354523;28;86072;-49
2022/04/27 01:06:21;;;;;;;;;;;7.90;1.00;;;;;;10372507;28;84760;-47
2022/04/27 01:11:21;;;;;;;;;;;7.80;1.00;;;;;;10372868;28;84133;-47
2022/04/27 01:16:28;;;;;;;;;;;7.70;1.00;;;;;;10354014;28;86590;-47
2022/04/27 01:21:28;;;;;;;;;;;7.80;1.00;;;;;;10372473;28;84672;-47
2022/04/27 01:26:37;;;;;;;;;;;7.60;1.00;;;;;;10371261;28;85302;-47
2022/04/27 01:31:38;;;;;;;;;;;7.60;1.00;;;;;;10372773;22;84186;-48
2022/04/27 01:36:39;;;;;;;;;;;7.50;1.00;;;;;;10327613;28;86938;-47
2022/04/27 01:41:40;;;;;;;;;;;7.40;1.00;;;;;;10312340;28;86828;-47
2022/04/27 01:46:41;;;;;;;;;;;7.50;1.00;;;;;;10329528;28;84796;-46
2022/04/27 01:57:01;;;;;;;;;;;7.40;1.00;;;;;;10329685;28;85020;-46
2022/04/27 02:02:01;;;;;;;;;;;7.40;1.00;;;;;;10328955;28;85721;-50
2022/04/27 02:07:02;;;;;;;;;;;7.30;1.00;;;;;;10310575;28;86142;-48
2022/04/27 02:12:04;;;;;;;;;;;7.20;1.00;;;;;;10311533;28;86454;-47
2022/04/27 02:17:08;;;;;;;;;;;7.10;1.00;;;;;;10310438;28;85789;-46
2022/04/27 02:22:09;;;;;;;;;;;7.10;1.00;;;;;;10310936;28;85923;-46
2022/04/27 02:27:09;;;;;;;;;;;7.10;1.00;;;;;;10326899;28;84887;-51
2022/04/27 02:32:10;;;;;;;;;;;7.10;1.00;;;;;;10309122;28;86575;-49
2022/04/27 02:37:12;;;;;;;;;;;7.00;1.00;;;;;;10304054;28;85877;-46
2022/04/27 02:42:17;;;;;;;;;;;7.00;1.00;;;;;;10309854;28;84843;-49
2022/04/27 02:47:19;;;;;;;;;;;7.00;1.00;;;;;;10326525;28;84024;-46
2022/04/27 02:52:20;;;;;;;;;;;7.00;1.00;;;;;;10286011;28;85336;-51
2022/04/27 02:57:45;;;;;;;;;;;6.90;1.00;;;;;;10267550;28;86662;-45
2022/04/27 03:02:46;;;;;;;;;;;6.90;5.00;;;;;;10284733;28;87202;-46
2022/04/27 03:07:46;;;;;;;;;;;6.90;1.00;;;;;;10285786;28;84089;-46
2022/04/27 03:12:47;;;;;;;;;;;6.90;1.00;;;;;;10284463;28;86797;-45
2022/04/27 03:18:16;;;;;;;;;;;6.90;1.00;;;;;;10283963;28;87331;-47
2022/04/27 03:23:08;;;;;;;;;;;6.70;10.20;;;;;;10308086;28;86560;-49
2022/04/27 03:28:09;;;;;;;;;;;6.70;2.00;;;;;;10308744;28;86062;-48
2022/04/27 03:33:10;;;;;;;;;;;6.60;34.00;;;;;;10303833;28;86719;-49
2022/04/27 03:38:11;;;;;;;;;;;6.50;38.80;;;;;;10307100;28;85910;-46
2022/04/27 03:43:12;;;;;;;;;;;6.50;61.80;;;;;;10333302;28;84568;-45
2022/04/27 03:48:12;;;;;;;;;;;6.50;57.10;;;;;;10314696;28;84949;-51
2022/04/27 03:53:13;;;;;;;;;;;6.40;62.30;;;;;;10334270;28;85308;-49
2022/04/27 03:58:14;;;;;;;;;;;6.30;98.40;;;;;;10314158;28;86739;-49
2022/04/27 04:03:15;;;;;;;;;;;6.20;99.90;;;;;;10314873;28;86741;-47
2022/04/27 04:08:16;;;;;;;;;;;6.20;99.90;;;;;;10314202;28;86594;-46
2022/04/27 04:13:17;;;;;;;;;;;6.20;99.90;;;;;;10310867;28;86125;-47
2022/04/27 04:18:17;;;;;;;;;;;6.30;99.90;;;;;;10331792;28;84830;-48
2022/04/27 04:23:41;;;;;;;;;;;6.30;96.30;;;;;;10318390;28;85471;-48
2022/04/27 04:28:43;;;;;;;;;;;6.40;99.90;;;;;;10296897;28;87052;-44
2022/04/27 04:33:43;;;;;;;;;;;6.40;99.90;;;;;;10313525;28;85946;-47
2022/04/27 04:38:46;;;;;;;;;;;6.40;99.90;;;;;;10313345;28;86821;-48
2022/04/27 04:43:56;;;;;;;;;;;6.50;99.70;;;;;;10313886;28;86002;-48
2022/04/27 04:48:58;;;;;;;;;;;6.40;99.90;;;;;;10312110;28;86987;-50
2022/04/27 04:54:04;;;;;;;;;;;6.50;97.00;;;;;;10313782;28;84818;-47
2022/04/27 04:59:30;;;;;;;;;;;6.70;99.90;;;;;;10312113;28;86588;-49
2022/04/27 05:04:40;;;;;;;;;;;6.80;74.50;;;;;;10288185;28;86145;-48
2022/04/27 05:09:47;;;;;;;;;;;6.80;61.00;;;;;;10311129;28;85858;-47
2022/04/27 05:15:14;;;;;;;;;;;6.90;81.10;;;;;;10321576;28;84586;-54
2022/04/27 05:20:14;;;;;;;;;;;7.00;51.70;;;;;;10324029;28;84807;-47
2022/04/27 05:25:34;;;;;;;;;;;7.10;43.50;;;;;;10324523;28;84248;-49
2022/04/27 05:36:38;;;;;;;;;;;7.20;1.00;;;;;;10311007;28;86108;-49
2022/04/27 05:41:57;;;;;;;;;;;7.30;9.00;;;;;;10327437;28;84918;-49
2022/04/27 05:46:58;;;;;;;;;;;7.40;1.00;;;;;;10327913;28;84559;-47
2022/04/27 05:52:25;;;;;;;;;;;7.30;1.00;;;;;;10309864;28;84727;-52
2022/04/27 05:57:46;;;;;;;;;;;7.40;1.00;;;;;;10311958;28;84628;-47
2022/04/27 06:03:12;;;;;;;;;;;7.50;1.00;;;;;;10328441;28;85237;-46
2022/04/27 06:08:14;;;;;;;;;;;7.70;1.00;;;;;;10308840;28;86711;-48
2022/04/27 06:13:15;;;;;;;;;;;8.00;1.00;;;;;;10319353;28;85613;-52
2022/04/27 06:18:24;;;;;;;;;;;8.20;1.00;;;;;;10296630;28;84196;-44
2022/04/27 06:23:26;;;;;;;;;;;8.40;1.00;;;;;;10308589;28;85813;-48
2022/04/27 06:28:27;;;;;;;;;;;8.70;1.00;;;;;;10309230;28;86787;-45
2022/04/27 06:33:28;;;;;;;;;;;9.00;1.00;;;;;;10310822;28;86936;-46
2022/04/27 06:38:29;;;;;;;;;;;9.30;1.00;;;;;;10309821;28;86777;-46
2022/04/27 06:43:34;;;;;;;;;;;9.60;1.00;;;;;;10311160;28;84941;-46
2022/04/27 06:49:13;;;;;;;;;;;9.90;1.00;;;;;;10161032;28;84848;-48
2022/04/27 06:54:32;;;;;;;;;;;10.30;1.00;;;;;;10299175;28;83935;-46
2022/04/27 06:59:51;;;;;;;;;;;10.60;1.00;;;;;;10327480;28;84190;-47
2022/04/27 07:04:59;;;;;;;;;;;11.10;1.00;;;;;;10310479;28;86981;-46
2022/04/27 07:09:59;;;;;;;;;;;11.50;1.00;;;;;;10326754;28;84578;-50
2022/04/27 07:15:00;;;;;;;;;;;12.20;1.00;;;;;;10327367;28;84668;-46
2022/04/27 07:20:01;;;;;;;;;;;12.40;99.90;;;;;;10326734;28;84909;-49
2022/04/27 07:25:01;;;;;;;;;;;12.90;99.90;;;;;;10310086;28;87158;-47
2022/04/27 07:30:02;;;;;;;;;;;13.70;99.90;;;;;;10326545;28;84958;-46
2022/04/27 07:35:03;;;;;;;;;;;14.20;1.00;;;;;;10386748;22;84821;-47
2022/04/27 07:40:06;;;;;;;;;;;14.70;99.90;;;;;;10368217;28;84088;-46
2022/04/27 07:45:07;;;;;;;;;;;14.70;1.00;;;;;;10368093;28;86162;-48
2022/04/27 07:50:08;;;;;;;;;;;15.00;1.00;;;;;;10367933;28;84925;-48
2022/04/27 07:55:09;;;;;;;;;;;15.60;15.60;;;;;;10368337;28;85066;-46
2022/04/27 08:00:13;;;;;;;;;;;15.90;1.00;;;;;;10367855;28;84895;-45
2022/04/27 08:05:15;;;;;;;;;;;16.30;99.90;;;;;;10368624;28;86242;-46
2022/04/27 08:10:17;;;;;;;;;;;16.40;99.90;;;;;;10367555;28;84127;-46
2022/04/27 08:15:18;;;;;;;;;;;17.10;99.90;;;;;;10367806;28;83991;-48
2022/04/27 08:25:42;;;;;;;;;;;17.50;50.50;;;;;;10354778;28;84251;-50
2022/04/27 08:30:43;;;;;;;;;;;17.90;1.00;;;;;;10356184;28;84941;-45
2022/04/27 08:35:44;;;;;;;;;;;17.80;1.00;;;;;;10355194;28;84998;-48
2022/04/27 08:40:45;;;;;;;;;;;17.40;99.90;;;;;;10373976;28;84080;-48
2022/04/27 08:45:46;;;;;;;;;;;17.00;99.90;;;;;;10373445;28;84765;-46
2022/04/27 08:50:47;;;;;;;;;;;18.40;99.90;;;;;;10373276;28;84060;-45
2022/04/27 08:55:49;;;;;;;;;;;18.80;1.00;;;;;;10372547;28;85028;-45
2022/04/27 09:00:50;;;;;;;;;;;19.00;1.00;;;;;;10372962;28;84034;-45
2022/04/27 09:05:55;;;;;;;;;;;19.40;99.90;;;;;;10372010;28;85036;-47
2022/04/27 09:11:14;;;;;;;;;;;19.80;1.00;;;;;;10372502;28;84243;-46
2022/04/27 09:16:16;;;;;;;;;;;20.00;99.90;;;;;;10371794;28;84963;-49
2022/04/27 09:21:17;;;;;;;;;;;19.90;99.90;;;;;;10354053;28;84849;-46
2022/04/27 09:26:19;;;;;;;;;;;20.40;99.90;;;;;;10371608;28;84917;-50
2022/04/27 09:31:30;;;;;;;;;;;20.30;1.00;;;;;;10371456;28;83986;-45
2022/04/27 09:36:31;;;;;;;;;;;21.20;1.00;;;;;;10370994;28;84172;-45
2022/04/27 09:41:36;;;;;;;;;;;20.80;1.00;;;;;;10372210;28;84957;-50
2022/04/27 09:46:40;;;;;;;;;;;20.40;1.00;;;;;;10371362;28;84081;-46
2022/04/27 09:51:51;;;;;;;;;;;19.80;1.00;;;;;;10372190;28;85272;-46
2022/04/27 09:56:54;;;;;;;;;;;19.00;1.00;;;;;;10370656;28;84133;-50
2022/04/27 10:01:59;;;;;;;;;;;19.80;1.00;;;;;;10353177;28;84641;-44
2022/04/27 10:07:04;;;;;;;;;;;20.80;99.90;;;;;;10370549;28;84009;-48
2022/04/27 10:12:06;;;;;;;;;;;20.60;99.90;;;;;;10370861;28;84134;-49
2022/04/27 10:17:07;;;;;;;;;;;21.20;99.90;;;;;;10370459;28;83988;-48
2022/04/27 10:22:24;;;;;;;;;;;20.60;99.90;;;;;;10370274;28;84428;-44
2022/04/27 10:27:25;;;;;;;;;;;21.00;99.90;;;;;;10371014;28;84160;-48
2022/04/27 10:32:38;;;;;;;;;;;22.20;99.90;;;;;;10370843;28;84996;-47
2022/04/27 10:37:46;;;;;;;;;;;21.90;23.40;;;;;;10370204;28;84804;-47
2022/04/27 10:42:47;;;;;;;;;;;21.50;99.90;;;;;;10370320;28;84119;-48
2022/04/27 10:47:48;;;;;;;;;;;21.40;99.90;;;;;;10351271;28;86961;-45
2022/04/27 10:52:52;;;;;;;;;;;20.70;37.30;;;;;;10370404;28;84390;-45
2022/04/27 10:58:09;;;;;;;;;;;21.20;1.00;;;;;;10369835;28;84870;-45
2022/04/27 11:03:16;;;;;;;;;;;21.20;1.00;;;;;;10370927;28;84001;-49
2022/04/27 11:08:23;;;;;;;;;;;21.10;1.00;;;;;;10369559;28;84005;-48
2022/04/27 11:13:27;;;;;;;;;;;21.70;1.00;;;;;;10370883;28;85238;-47
2022/04/27 11:18:46;;;;;;;;;;;22.00;1.00;;;;;;10351287;28;85928;-46
2022/04/27 11:23:47;;;;;;;;;;;23.20;1.00;;;;;;10370197;28;84935;-46
2022/04/27 11:28:48;;;;;;;;;;;22.50;1.00;;;;;;10369136;28;84025;-46
2022/04/27 11:33:49;;;;;;;;;;;22.00;1.00;;;;;;10369635;28;84195;-51
2022/04/27 11:38:50;;;;;;;;;;;21.90;1.00;;;;;;10369940;28;85161;-48
2022/04/27 11:43:51;;;;;;;;;;;22.40;1.00;;;;;;10369570;28;84162;-46
2022/04/27 11:48:52;;;;;;;;;;;22.70;1.00;;;;;;10369415;28;84143;-46
2022/04/27 11:53:54;;;;;;;;;;;23.00;1.00;;;;;;10369871;28;84070;-47
2022/04/27 11:59:05;;;;;;;;;;;23.00;1.00;;;;;;10369973;28;85112;-46
2022/04/27 12:04:06;;;;;;;;;;;22.90;1.00;;;;;;10376680;28;84955;-54
2022/04/27 12:09:14;;;;;;;;;;;22.80;1.00;;;;;;10376637;28;85165;-47
2022/04/27 12:14:16;;;;;;;;;;;22.40;1.00;;;;;;10376309;28;85393;-44
2022/04/27 12:19:26;;;;;;;;;;;22.90;1.00;;;;;;10375813;28;85119;-51
2022/04/27 12:24:27;;;;;;;;;;;23.50;1.00;;;;;;10376861;28;84919;-46
2022/04/27 12:29:30;;;;;;;;;;;23.00;1.00;;;;;;10356919;28;84227;-46
2022/04/27 12:39:50;;;;;;;;;;;22.40;1.00;;;;;;10375333;28;84558;-48
2022/04/27 12:44:51;;;;;;;;;;;23.20;1.00;;;;;;10373643;28;84928;-47
2022/04/27 12:49:59;;;;;;;;;;;23.10;99.90;;;;;;10374579;28;84923;-47
2022/04/27 12:55:08;;;;;;;;;;;22.70;99.90;;;;;;10374727;28;86212;-46
2022/04/27 13:00:08;;;;;;;;;;;22.90;99.90;;;;;;10374512;28;84820;-47
2022/04/27 13:05:09;;;;;;;;;;;22.80;99.90;;;;;;10374960;28;84720;-48
2022/04/27 13:15:29;;;;;;;;;;;22.60;99.90;;;;;;10374083;28;84718;-49
2022/04/27 13:20:29;;;;;;;;;;;22.30;99.90;;;;;;10374044;28;84774;-48
2022/04/27 13:25:30;;;;;;;;;;;23.10;99.90;;;;;;10373429;28;84877;-48
2022/04/27 13:30:30;;;;;;;;;;;23.60;99.90;;;;;;10372996;28;95851;-47
2022/04/27 13:35:31;;;;;;;;;;;23.90;99.90;;;;;;10350701;22;84438;-46
2022/04/27 13:40:32;;;;;;;;;;;23.90;99.90;;;;;;10331522;28;84935;-46
2022/04/27 13:45:33;;;;;;;;;;;23.90;99.90;;;;;;10329755;28;85267;-51
2022/04/27 13:50:33;;;;;;;;;;;23.90;99.90;;;;;;10330638;28;84232;-47
2022/04/27 13:55:35;;;;;;;;;;;23.60;99.90;;;;;;10329593;28;84096;-48
2022/04/27 14:00:36;;;;;;;;;;;23.90;99.90;;;;;;10329700;28;85393;-49
2022/04/27 14:05:36;;;;;;;;;;;24.00;99.90;;;;;;10329184;28;84918;-47
2022/04/27 14:10:37;;;;;;;;;;;23.80;99.90;;;;;;10312069;28;84734;-50
2022/04/27 14:15:38;;;;;;;;;;;23.70;99.90;;;;;;10310908;28;85541;-47
2022/04/27 14:20:42;;;;;;;;;;;22.60;99.90;;;;;;10329413;28;84717;-47
2022/04/27 14:25:43;;;;;;;;;;;21.50;99.90;;;;;;10309746;28;86068;-50
2022/04/27 14:30:44;;;;;;;;;;;20.90;49.90;;;;;;10329278;28;84929;-47
2022/04/27 14:35:45;;;;;;;;;;;20.60;4.00;;;;;;10328075;28;84193;-50
2022/04/27 14:40:47;;;;;;;;;;;20.10;99.90;;;;;;10310636;28;86134;-47
2022/04/27 14:45:48;;;;;;;;;;;19.50;99.90;;;;;;10327881;28;84148;-48
2022/04/27 14:50:49;;;;;;;;;;;19.30;99.90;;;;;;10310150;28;86649;-50
2022/04/27 14:55:50;;;;;;;;;;;19.10;99.90;;;;;;10302475;28;85004;-45
2022/04/27 15:00:55;;;;;;;;;;;18.90;99.90;;;;;;10328270;28;84003;-49
2022/04/27 15:05:55;;;;;;;;;;;18.30;70.90;;;;;;10319636;28;85278;-47
2022/04/27 15:10:56;;;;;;;;;;;18.40;99.90;;;;;;10323958;28;84060;-46
2022/04/27 15:15:56;;;;;;;;;;;18.30;99.90;;;;;;10317618;28;84308;-46
2022/04/27 15:26:16;;;;;;;;;;;18.10;99.90;;;;;;10327272;28;84353;-50
2022/04/27 15:31:16;;;;;;;;;;;18.00;99.50;;;;;;10329442;28;84731;-45
2022/04/27 15:36:17;;;;;;;;;;;17.60;99.90;;;;;;10332737;28;84919;-47
2022/04/27 15:41:17;;;;;;;;;;;17.70;99.90;;;;;;10336075;28;84834;-46
2022/04/27 15:46:18;;;;;;;;;;;17.50;99.90;;;;;;10337729;28;84877;-51
2022/04/27 15:51:19;;;;;;;;;;;17.10;99.90;;;;;;10341874;28;84955;-52
2022/04/27 15:56:19;;;;;;;;;;;17.30;99.90;;;;;;10321450;28;86796;-44
2022/04/27 16:01:20;;;;;;;;;;;17.20;99.90;;;;;;10315072;28;84351;-48
2022/04/27 16:06:21;;;;;;;;;;;17.10;99.90;;;;;;10338539;28;84354;-47
2022/04/27 16:11:22;;;;;;;;;;;17.00;99.90;;;;;;10340411;28;85182;-42
2022/04/27 16:16:23;;;;;;;;;;;17.10;99.90;;;;;;10339499;28;84166;-47
2022/04/27 16:26:43;;;;;;;;;;;17.00;99.90;;;;;;10338268;28;84319;-44
2022/04/27 16:31:43;;;;;;;;;;;16.80;99.90;;;;;;10336081;28;84834;-45
2022/04/27 16:36:44;;;;;;;;;;;16.80;99.90;;;;;;10337705;28;85024;-52
2022/04/27 16:41:44;;;;;;;;;;;16.70;99.90;;;;;;10340129;28;85189;-45
2022/04/27 16:46:45;;;;;;;;;;;16.70;99.90;;;;;;10316190;28;85898;-48
2022/04/27 16:51:46;;;;;;;;;;;16.40;99.90;;;;;;10314305;28;84004;-43
2022/04/27 16:56:46;;;;;;;;;;;16.30;99.90;;;;;;10327369;28;85442;-48
2022/04/27 17:01:47;;;;;;;;;;;16.20;99.90;;;;;;10297233;28;84957;-49
2022/04/27 17:06:48;;;;;;;;;;;16.30;99.90;;;;;;10312640;28;86007;-49
2022/04/27 17:11:48;;;;;;;;;;;16.20;99.90;;;;;;10315186;28;85042;-52
2022/04/27 17:16:49;;;;;;;;;;;16.10;99.90;;;;;;10331528;28;84893;-50
2022/04/27 17:21:50;;;;;;;;;;;16.00;99.90;;;;;;10314244;28;84913;-43
2022/04/27 17:32:11;;;;;;;;;;;15.80;1.00;;;;;;10314625;28;84205;-47
2022/04/27 17:37:11;;;;;;;;;;;15.80;1.00;;;;;;10326663;28;84337;-47
2022/04/27 17:47:32;;;;;;;;;;;15.60;1.00;;;;;;10323153;28;84841;-46
2022/04/27 17:52:32;;;;;;;;;;;15.50;1.00;;;;;;10291491;28;86064;-46
2022/04/27 17:57:34;;;;;;;;;;;15.30;1.00;;;;;;10326164;28;84994;-47
2022/04/27 18:02:35;;;;;;;;;;;15.20;1.00;;;;;;10327006;28;84505;-46
2022/04/27 18:07:37;;;;;;;;;;;15.20;99.90;;;;;;10326307;28;85215;-51
2022/04/27 18:12:38;;;;;;;;;;;15.10;99.90;;;;;;10328237;28;84010;-45
2022/04/27 18:17:39;;;;;;;;;;;15.00;1.00;;;;;;10325946;28;84764;-46
2022/04/27 18:22:40;;;;;;;;;;;14.90;99.90;;;;;;10324662;28;85282;-46
2022/04/27 18:27:44;;;;;;;;;;;14.80;1.00;;;;;;10325619;28;84452;-45
2022/04/27 18:32:44;;;;;;;;;;;14.70;1.00;;;;;;10291924;28;86965;-52
2022/04/27 18:37:45;;;;;;;;;;;14.50;1.00;;;;;;10326973;28;84851;-47
2022/04/27 18:42:45;;;;;;;;;;;14.50;1.00;;;;;;10327155;28;84030;-47
2022/04/27 18:53:05;;;;;;;;;;;14.30;1.00;;;;;;10325884;28;85240;-47
2022/04/27 18:58:06;;;;;;;;;;;14.10;99.90;;;;;;10326676;28;84947;-50
2022/04/27 19:03:06;;;;;;;;;;;14.00;1.00;;;;;;10309379;28;84958;-51
2022/04/27 19:08:07;;;;;;;;;;;13.90;99.90;;;;;;10324725;28;85381;-50
2022/04/27 19:13:07;;;;;;;;;;;13.70;1.00;;;;;;10293805;28;85941;-49
2022/04/27 19:18:08;;;;;;;;;;;13.60;99.90;;;;;;10326077;28;85220;-46
2022/04/27 19:23:09;;;;;;;;;;;13.40;1.00;;;;;;10326582;28;84921;-47
2022/04/27 19:28:12;;;;;;;;;;;13.30;58.00;;;;;;10324929;28;85372;-47
2022/04/27 19:33:16;;;;;;;;;;;13.30;99.90;;;;;;10311884;22;85042;-46
2022/04/27 19:38:17;;;;;;;;;;;13.10;1.00;;;;;;10288279;28;85047;-49
2022/04/27 19:43:18;;;;;;;;;;;13.10;1.00;;;;;;10326007;28;84125;-46
2022/04/27 19:48:18;;;;;;;;;;;12.90;99.90;;;;;;10288993;28;85770;-46
2022/04/27 19:53:19;;;;;;;;;;;12.90;1.00;;;;;;10308482;28;84914;-45
2022/04/27 19:58:19;;;;;;;;;;;12.60;1.00;;;;;;10324856;28;84147;-47
2022/04/27 20:03:21;;;;;;;;;;;12.60;1.00;;;;;;10325320;28;85038;-50
2022/04/27 20:08:21;;;;;;;;;;;12.50;99.90;;;;;;10323192;28;84051;-46
2022/04/27 20:13:22;;;;;;;;;;;12.40;99.90;;;;;;10284509;28;84011;-46
2022/04/27 20:18:22;;;;;;;;;;;12.30;1.00;;;;;;10300462;28;85170;-48
2022/04/27 20:23:23;;;;;;;;;;;12.10;1.00;;;;;;10283015;28;84828;-46
2022/04/27 20:28:26;;;;;;;;;;;11.90;99.90;;;;;;10274575;28;87002;-47
2022/04/27 20:33:26;;;;;;;;;;;11.80;1.00;;;;;;10277141;28;86899;-45
2022/04/27 20:38:27;;;;;;;;;;;11.70;1.00;;;;;;10272771;28;84992;-47
2022/04/27 20:43:27;;;;;;;;;;;11.60;1.00;;;;;;10292309;28;84163;-45
2022/04/27 20:48:28;;;;;;;;;;;11.60;1.00;;;;;;10290856;28;86643;-47
2022/04/27 20:53:29;;;;;;;;;;;11.40;1.00;;;;;;10274787;28;84935;-47
2022/04/27 20:58:29;;;;;;;;;;;11.40;1.00;;;;;;10292555;28;84848;-48
2022/04/27 21:03:30;;;;;;;;;;;11.30;30.80;;;;;;10298944;28;84324;-47
2022/04/27 21:08:31;;;;;;;;;;;11.20;99.90;;;;;;10281972;28;84258;-46
2022/04/27 21:13:31;;;;;;;;;;;11.10;99.90;;;;;;10274517;28;85285;-46
2022/04/27 21:18:32;;;;;;;;;;;11.00;99.90;;;;;;10291390;28;84273;-49
2022/04/27 21:23:33;;;;;;;;;;;11.00;99.90;;;;;;10312788;28;85394;-47
2022/04/27 21:28:33;;;;;;;;;;;10.90;99.90;;;;;;10329785;28;85639;-48
2022/04/27 21:33:34;;;;;;;;;;;10.80;99.90;;;;;;10330050;28;85243;-46
2022/04/27 21:38:34;;;;;;;;;;;10.70;99.90;;;;;;10328557;28;84005;-47
2022/04/27 21:43:35;;;;;;;;;;;10.60;99.90;;;;;;10330975;28;86679;-46
2022/04/27 21:48:36;;;;;;;;;;;10.60;99.90;;;;;;10312530;28;85384;-46
2022/04/27 21:53:37;;;;;;;;;;;10.60;99.90;;;;;;10329461;28;85120;-47
2022/04/27 21:58:38;;;;;;;;;;;10.40;99.90;;;;;;10330180;28;84228;-47
2022/04/27 22:04:23;;;;;;;;;;;10.30;1.00;;;;;;10330126;28;84267;-49
2022/04/27 22:09:09;;;;;;;;;;;10.20;1.00;;;;;;10311700;28;84873;-47
2022/04/27 22:14:09;;;;;;;;;;;10.20;1.00;;;;;;10314338;28;84142;-47
2022/04/27 22:19:10;;;;;;;;;;;10.10;1.00;;;;;;10303552;28;84186;-47
2022/04/27 22:24:13;;;;;;;;;;;10.00;1.00;;;;;;10289441;28;84853;-51
2022/04/27 22:29:14;;;;;;;;;;;9.90;1.00;;;;;;10288368;28;84053;-47
2022/04/27 22:34:14;;;;;;;;;;;9.90;1.00;;;;;;10320259;28;85095;-50
2022/04/27 22:39:15;;;;;;;;;;;9.80;1.00;;;;;;10284953;28;84980;-48
2022/04/27 22:44:15;;;;;;;;;;;9.70;1.00;;;;;;10287569;28;84762;-50
2022/04/27 22:49:16;;;;;;;;;;;9.70;1.00;;;;;;10288022;28;84836;-47
2022/04/27 22:54:17;;;;;;;;;;;9.70;1.00;;;;;;10322060;28;84126;-46
2022/04/27 22:59:17;;;;;;;;;;;9.60;1.00;;;;;;10310847;28;84619;-48
2022/04/27 23:04:18;;;;;;;;;;;9.50;1.00;;;;;;10328339;28;84794;-47
2022/04/27 23:14:38;;;;;;;;;;;9.40;1.00;;;;;;10287233;28;84945;-48
2022/04/27 23:19:38;;;;;;;;;;;9.30;1.00;;;;;;10287066;28;84901;-46
2022/04/27 23:24:39;;;;;;;;;;;9.30;1.00;;;;;;10307034;28;84278;-49
2022/04/27 23:29:39;;;;;;;;;;;9.20;1.00;;;;;;10276494;28;86904;-48
2022/04/27 23:34:40;;;;;;;;;;;9.20;1.00;;;;;;10268389;28;85888;-48
2022/04/27 23:39:41;;;;;;;;;;;9.20;1.00;;;;;;10269920;28;84912;-47
2022/04/27 23:44:41;;;;;;;;;;;9.10;1.00;;;;;;10287275;28;84807;-47
2022/04/27 23:49:42;;;;;;;;;;;9.00;1.00;;;;;;10285881;28;84980;-47
2022/04/27 23:54:43;;;;;;;;;;;9.00;1.00;;;;;;10288223;28;84236;-48
2022/04/27 23:59:43;;;;;;;;;;;8.80;1.00;;;;;;10293928;28;84176;-47
